createdAt,value
2017-07-24T00:00:39.593Z,18.30
2017-07-24T00:03:43.198Z,18.40
2017-07-24T00:06:46.509Z,18.40
2017-07-24T00:09:49.876Z,18.50
2017-07-24T00:12:53.153Z,18.60
2017-07-24T00:15:56.480Z,18.50
2017-07-24T00:18:59.782Z,18.30
2017-07-24T00:22:03.902Z,18.40
2017-07-24T00:25:08.012Z,18.40
2017-07-24T00:28:12.080Z,18.40
2017-07-24T00:31:15.394Z,18.40
2017-07-24T00:34:18.700Z,18.50
2017-07-24T00:37:22.024Z,18.50
2017-07-24T00:40:26.066Z,18.50
2017-07-24T00:43:29.373Z,18.50
2017-07-24T00:46:32.649Z,18.30
2017-07-24T00:49:35.992Z,18.30
2017-07-24T00:52:41.070Z,18.10
2017-07-24T00:55:44.402Z,18.10
2017-07-24T00:58:47.728Z,18.10
2017-07-24T01:01:51.009Z,18.20
2017-07-24T01:04:54.347Z,18.20
2017-07-24T01:07:58.396Z,18.30
2017-07-24T01:11:01.739Z,18.30
2017-07-24T01:14:05.013Z,18.10
2017-07-24T01:17:08.330Z,18.10
2017-07-24T01:20:12.013Z,18.20
2017-07-24T01:23:15.313Z,18.30
2017-07-24T01:26:18.622Z,18.30
2017-07-24T01:29:21.902Z,18.20
2017-07-24T01:32:25.236Z,18.30
2017-07-24T01:35:29.303Z,18.30
2017-07-24T01:38:32.612Z,18.30
2017-07-24T01:41:36.025Z,18.30
2017-07-24T01:44:39.305Z,18.60
2017-07-24T01:47:42.622Z,18.30
2017-07-24T01:50:45.909Z,18.30
2017-07-24T01:53:50.198Z,18.30
2017-07-24T01:56:53.498Z,18.30
2017-07-24T01:59:56.828Z,18.40
2017-07-24T02:03:00.108Z,18.40
2017-07-24T02:06:03.450Z,18.40
2017-07-24T02:09:06.780Z,18.40
2017-07-24T02:12:10.076Z,18.30
2017-07-24T02:15:13.404Z,18.30
2017-07-24T02:18:16.682Z,18.30
2017-07-24T02:21:19.995Z,18.30
2017-07-24T02:24:23.296Z,18.40
2017-07-24T02:27:26.611Z,18.30
2017-07-24T02:30:30.687Z,18.30
2017-07-24T02:33:33.993Z,18.30
2017-07-24T02:36:37.311Z,18.30
2017-07-24T02:39:40.593Z,18.10
2017-07-24T02:42:43.906Z,18.10
2017-07-24T02:45:47.189Z,18.20
2017-07-24T02:48:50.494Z,18.20
2017-07-24T02:51:54.746Z,18.20
2017-07-24T02:54:59.039Z,18.20
2017-07-24T02:58:02.355Z,18.20
2017-07-24T03:01:05.630Z,17.80
2017-07-24T03:04:09.727Z,17.60
2017-07-24T03:07:13.006Z,17.60
2017-07-24T03:10:16.318Z,17.70
2017-07-24T03:13:20.517Z,17.20
2017-07-24T03:16:23.817Z,17.20
2017-07-24T03:19:27.130Z,17.00
2017-07-24T03:22:31.341Z,16.90
2017-07-24T03:25:34.650Z,16.90
2017-07-24T03:28:38.712Z,16.80
2017-07-24T03:31:42.018Z,16.80
2017-07-24T03:34:45.320Z,16.70
2017-07-24T03:37:48.652Z,16.80
2017-07-24T03:40:52.745Z,17.10
2017-07-24T03:43:56.049Z,17.10
2017-07-24T03:46:59.379Z,17.20
2017-07-24T03:50:02.657Z,17.20
2017-07-24T03:53:06.726Z,17.40
2017-07-24T03:56:10.029Z,17.40
2017-07-24T03:59:13.348Z,17.50
2017-07-24T04:02:16.783Z,17.30
2017-07-24T04:05:20.073Z,17.40
2017-07-24T04:08:23.405Z,17.40
2017-07-24T04:11:26.704Z,17.40
2017-07-24T04:14:30.050Z,17.40
2017-07-24T04:17:34.096Z,17.40
2017-07-24T04:20:37.419Z,17.30
2017-07-24T04:23:40.730Z,17.20
2017-07-24T04:26:44.067Z,17.00
2017-07-24T04:29:47.713Z,16.90
2017-07-24T04:32:50.989Z,17.00
2017-07-24T04:35:54.428Z,16.80
2017-07-24T04:38:57.702Z,16.80
2017-07-24T04:42:01.043Z,16.80
2017-07-24T04:45:05.082Z,16.80
2017-07-24T04:48:08.410Z,16.70
2017-07-24T04:51:11.689Z,16.80
2017-07-24T04:54:15.029Z,16.90
2017-07-24T04:57:19.209Z,17.10
2017-07-24T05:00:22.481Z,17.10
2017-07-24T05:03:25.787Z,17.20
2017-07-24T05:06:29.059Z,17.20
2017-07-24T05:09:32.583Z,17.30
2017-07-24T05:12:35.890Z,17.20
2017-07-24T05:15:39.202Z,17.20
2017-07-24T05:18:42.544Z,17.30
2017-07-24T05:21:45.822Z,17.30
2017-07-24T05:24:49.903Z,17.40
2017-07-24T05:27:53.187Z,17.30
2017-07-24T05:30:56.516Z,17.30
2017-07-24T05:33:59.798Z,17.30
2017-07-24T05:37:03.109Z,17.30
2017-07-24T05:40:06.418Z,17.40
2017-07-24T05:43:10.484Z,17.20
2017-07-24T05:46:13.813Z,17.20
2017-07-24T05:49:17.096Z,17.30
2017-07-24T05:52:20.410Z,17.30
2017-07-24T05:55:23.689Z,17.20
2017-07-24T05:58:26.997Z,17.20
2017-07-24T06:01:30.570Z,17.20
2017-07-24T06:04:33.859Z,17.10
2017-07-24T06:07:37.199Z,17.20
2017-07-24T06:10:41.269Z,17.10
2017-07-24T06:13:44.602Z,17.10
2017-07-24T06:16:47.905Z,17.10
2017-07-24T06:19:52.005Z,17.20
2017-07-24T06:22:55.492Z,17.10
2017-07-24T06:25:58.797Z,17.30
2017-07-24T06:29:02.133Z,17.40
2017-07-24T06:32:05.437Z,17.40
2017-07-24T06:35:08.738Z,17.50
2017-07-24T06:38:12.011Z,17.40
2017-07-24T06:41:15.322Z,17.40
2017-07-24T06:44:18.625Z,17.50
2017-07-24T06:47:21.966Z,17.40
2017-07-24T06:50:25.274Z,17.50
2017-07-24T06:53:28.586Z,17.50
2017-07-24T06:56:32.789Z,17.50
2017-07-24T06:59:36.065Z,17.50
2017-07-24T07:02:39.377Z,17.60
2017-07-24T07:05:42.679Z,17.50
2017-07-24T07:08:46.773Z,17.60
2017-07-24T07:11:50.048Z,17.60
2017-07-24T07:14:53.357Z,17.60
2017-07-24T07:17:56.657Z,17.60
2017-07-24T07:20:59.993Z,17.60
2017-07-24T07:24:03.296Z,17.60
2017-07-24T07:27:06.614Z,17.50
2017-07-24T07:30:09.886Z,17.60
2017-07-24T07:33:13.197Z,17.50
2017-07-24T07:36:16.528Z,17.50
2017-07-24T07:39:19.830Z,17.60
2017-07-24T07:42:23.137Z,17.60
2017-07-24T07:45:27.179Z,17.50
2017-07-24T07:48:30.519Z,17.50
2017-07-24T07:51:33.794Z,17.60
2017-07-24T07:54:37.101Z,17.60
2017-07-24T07:57:40.458Z,17.60
2017-07-24T08:00:43.765Z,17.60
2017-07-24T08:03:47.060Z,17.50
2017-07-24T08:06:50.444Z,17.50
2017-07-24T08:09:53.722Z,17.60
2017-07-24T08:12:57.798Z,17.70
2017-07-24T08:16:01.132Z,17.70
2017-07-24T08:19:05.205Z,17.70
2017-07-24T08:22:08.647Z,17.70
2017-07-24T08:25:11.964Z,17.70
2017-07-24T08:28:15.277Z,17.70
2017-07-24T08:31:18.557Z,17.70
2017-07-24T08:34:21.886Z,17.70
2017-07-24T08:37:25.331Z,17.70
2017-07-24T08:40:29.405Z,17.70
2017-07-24T08:43:32.679Z,17.70
2017-07-24T08:46:36.019Z,17.80
2017-07-24T08:49:39.457Z,17.80
2017-07-24T08:52:42.754Z,17.90
2017-07-24T08:55:46.171Z,17.90
2017-07-24T08:58:49.574Z,17.90
2017-07-24T09:01:53.000Z,17.90
2017-07-24T09:04:57.370Z,18.00
2017-07-24T09:08:00.692Z,17.90
2017-07-24T09:11:04.002Z,17.80
2017-07-24T09:14:07.278Z,17.90
2017-07-24T09:17:11.525Z,18.00
2017-07-24T09:20:14.827Z,18.00
2017-07-24T09:23:18.147Z,17.90
2017-07-24T09:26:22.422Z,17.90
2017-07-24T09:29:25.724Z,17.90
2017-07-24T09:32:29.060Z,18.00
2017-07-24T09:35:33.318Z,18.00
2017-07-24T09:38:36.661Z,18.00
2017-07-24T09:41:40.737Z,18.10
2017-07-24T09:44:44.073Z,18.10
2017-07-24T09:47:48.123Z,18.00
2017-07-24T09:50:51.430Z,17.90
2017-07-24T09:53:54.864Z,18.00
2017-07-24T09:56:58.142Z,17.90
2017-07-24T10:00:01.477Z,17.90
2017-07-24T10:03:05.545Z,18.00
2017-07-24T10:06:08.876Z,18.00
2017-07-24T10:09:12.162Z,18.10
2017-07-24T10:12:15.472Z,18.20
2017-07-24T10:15:19.539Z,18.30
2017-07-24T10:18:22.869Z,18.30
2017-07-24T10:21:26.143Z,18.40
2017-07-24T10:24:29.450Z,18.40
2017-07-24T10:27:32.733Z,18.40
2017-07-24T10:30:36.050Z,18.30
2017-07-24T10:33:39.423Z,18.30
2017-07-24T10:36:42.726Z,18.30
2017-07-24T10:39:46.058Z,18.40
2017-07-24T10:42:49.356Z,18.30
2017-07-24T10:45:52.691Z,18.40
2017-07-24T10:48:55.995Z,18.40
2017-07-24T10:51:59.331Z,18.50
2017-07-24T10:55:02.985Z,19.00
2017-07-24T10:58:06.262Z,18.50
2017-07-24T11:01:10.357Z,18.40
2017-07-24T11:04:13.646Z,18.30
2017-07-24T11:07:16.959Z,18.30
2017-07-24T11:10:20.334Z,18.20
2017-07-24T11:13:23.858Z,18.20
2017-07-24T11:16:27.317Z,18.20
2017-07-24T11:19:30.853Z,18.30
2017-07-24T11:22:34.582Z,18.30
2017-07-24T11:25:38.835Z,18.20
2017-07-24T11:28:42.362Z,18.20
2017-07-24T11:31:45.819Z,18.20
2017-07-24T11:34:49.224Z,18.30
2017-07-24T11:37:52.733Z,18.20
2017-07-24T11:40:56.289Z,18.20
2017-07-24T11:43:59.707Z,18.20
2017-07-24T11:47:03.944Z,18.10
2017-07-24T11:50:07.574Z,18.10
2017-07-24T11:53:10.881Z,18.10
2017-07-24T11:56:14.561Z,18.10
2017-07-24T11:59:17.842Z,18.00
2017-07-24T12:02:21.924Z,18.10
2017-07-24T12:05:25.233Z,18.10
2017-07-24T12:08:28.570Z,18.10
2017-07-24T12:11:31.877Z,18.10
2017-07-24T12:14:36.047Z,18.20
2017-07-24T12:17:40.290Z,18.10
2017-07-24T12:20:43.624Z,18.00
2017-07-24T12:23:46.910Z,18.20
2017-07-24T12:26:50.266Z,18.20
2017-07-24T12:29:53.586Z,18.40
2017-07-24T12:32:56.903Z,18.70
2017-07-24T12:36:00.231Z,18.80
2017-07-24T12:39:03.530Z,18.80
2017-07-24T12:42:06.839Z,18.80
2017-07-24T12:45:10.150Z,19.00
2017-07-24T12:48:13.514Z,19.00
2017-07-24T12:51:16.818Z,19.20
2017-07-24T12:54:20.153Z,19.30
2017-07-24T12:57:23.430Z,19.20
2017-07-24T13:00:26.768Z,19.30
2017-07-24T13:03:30.049Z,19.10
2017-07-24T13:06:33.357Z,18.90
2017-07-24T13:09:36.660Z,18.70
2017-07-24T13:12:39.965Z,18.70
2017-07-24T13:15:44.449Z,18.70
2017-07-24T13:18:47.734Z,18.70
2017-07-24T13:21:51.065Z,18.70
2017-07-24T13:24:54.369Z,18.80
2017-07-24T13:27:57.701Z,18.80
2017-07-24T13:31:00.986Z,19.00
2017-07-24T13:34:05.079Z,19.00
2017-07-24T13:37:08.498Z,19.00
2017-07-24T13:40:11.786Z,18.90
2017-07-24T13:43:15.862Z,18.80
2017-07-24T13:46:19.139Z,18.80
2017-07-24T13:49:22.472Z,18.70
2017-07-24T13:52:25.777Z,18.80
2017-07-24T13:55:29.874Z,19.00
2017-07-24T13:58:33.317Z,19.00
2017-07-24T14:01:36.597Z,18.90
2017-07-24T14:04:40.669Z,19.60
2017-07-24T14:07:43.949Z,19.60
2017-07-24T14:10:47.261Z,19.70
2017-07-24T14:13:50.541Z,20.00
2017-07-24T14:16:53.872Z,19.80
2017-07-24T14:19:57.173Z,19.60
2017-07-24T14:23:00.486Z,19.30
2017-07-24T14:26:04.893Z,19.00
2017-07-24T14:29:08.945Z,18.80
2017-07-24T14:32:12.284Z,18.80
2017-07-24T14:35:15.565Z,18.80
2017-07-24T14:38:18.886Z,18.80
2017-07-24T14:41:22.168Z,18.80
2017-07-24T14:44:25.482Z,18.80
2017-07-24T14:47:29.052Z,18.80
2017-07-24T14:50:32.330Z,18.80
2017-07-24T14:53:35.641Z,18.70
2017-07-24T14:56:38.922Z,18.70
2017-07-24T14:59:42.235Z,18.70
2017-07-24T15:02:45.536Z,18.70
2017-07-24T15:05:48.850Z,18.80
2017-07-24T15:08:52.167Z,18.70
2017-07-24T15:11:56.273Z,18.70
2017-07-24T15:14:59.572Z,18.70
2017-07-24T15:18:02.905Z,18.70
2017-07-24T15:21:06.373Z,18.40
2017-07-24T15:24:10.430Z,18.10
2017-07-24T15:27:13.753Z,18.10
2017-07-24T15:30:17.030Z,18.10
2017-07-24T15:33:20.343Z,18.10
2017-07-24T15:36:23.646Z,18.00
2017-07-24T15:39:26.980Z,18.00
2017-07-24T15:42:31.022Z,18.00
2017-07-24T15:45:34.324Z,18.00
2017-07-24T15:48:38.042Z,18.00
2017-07-24T15:51:41.323Z,18.00
2017-07-24T15:54:44.637Z,17.90
2017-07-24T15:57:47.933Z,17.80
2017-07-24T16:00:51.273Z,17.90
2017-07-24T16:03:55.431Z,18.00
2017-07-24T16:06:58.757Z,17.90
2017-07-24T16:10:02.046Z,18.10
2017-07-24T16:13:05.377Z,18.20
2017-07-24T16:16:09.444Z,18.20
2017-07-24T16:19:12.761Z,18.20
2017-07-24T16:22:16.083Z,18.10
2017-07-24T16:25:20.173Z,18.10
2017-07-24T16:28:23.596Z,18.10
2017-07-24T16:31:27.661Z,18.10
2017-07-24T16:34:30.968Z,18.00
2017-07-24T16:37:34.241Z,18.10
2017-07-24T16:40:37.573Z,18.10
2017-07-24T16:43:40.850Z,18.10
2017-07-24T16:46:44.187Z,18.10
2017-07-24T16:49:48.260Z,18.20
2017-07-24T16:52:51.585Z,18.20
2017-07-24T16:55:54.379Z,18.30
2017-07-24T16:58:58.445Z,18.30
2017-07-24T17:02:01.785Z,18.30
2017-07-24T17:05:05.871Z,18.40
2017-07-24T17:08:09.198Z,18.30
2017-07-24T17:11:13.242Z,18.40
2017-07-24T17:14:16.548Z,18.40
2017-07-24T17:17:19.849Z,18.40
2017-07-24T17:20:23.186Z,18.40
2017-07-24T17:23:26.660Z,18.30
2017-07-24T17:26:29.995Z,18.20
2017-07-24T17:29:34.199Z,18.20
2017-07-24T17:32:37.487Z,18.10
2017-07-24T17:35:40.829Z,18.20
2017-07-24T17:38:44.105Z,18.10
2017-07-24T17:41:48.186Z,18.00
2017-07-24T17:44:51.605Z,18.00
2017-07-24T17:47:54.880Z,18.00
2017-07-24T17:50:58.212Z,18.10
2017-07-24T17:54:01.512Z,18.00
2017-07-24T17:57:05.615Z,18.00
2017-07-24T18:00:09.670Z,18.00
2017-07-24T18:03:12.984Z,17.90
2017-07-24T18:06:16.403Z,17.90
2017-07-24T18:09:19.708Z,17.90
2017-07-24T18:12:23.017Z,17.90
2017-07-24T18:15:27.054Z,17.80
2017-07-24T18:18:30.391Z,17.80
2017-07-24T18:21:33.678Z,17.70
2017-07-24T18:24:36.986Z,17.80
2017-07-24T18:27:40.282Z,17.80
2017-07-24T18:30:43.619Z,17.70
2017-07-24T18:33:46.927Z,17.70
2017-07-24T18:36:50.263Z,17.70
2017-07-24T18:39:53.737Z,17.70
2017-07-24T18:42:57.013Z,17.70
2017-07-24T18:46:00.345Z,17.70
2017-07-24T18:49:03.670Z,17.70
2017-07-24T18:52:07.009Z,17.70
2017-07-24T18:55:10.379Z,17.70
2017-07-24T18:58:14.452Z,17.70
2017-07-24T19:01:17.770Z,17.70
2017-07-24T19:04:21.043Z,17.60
2017-07-24T19:07:24.385Z,17.60
2017-07-24T19:10:28.450Z,17.60
2017-07-24T19:13:31.758Z,17.60
2017-07-24T19:16:35.058Z,17.60
2017-07-24T19:19:38.398Z,17.60
2017-07-24T19:22:41.722Z,17.60
2017-07-24T19:25:45.013Z,17.60
2017-07-24T19:28:48.325Z,17.60
2017-07-24T19:31:51.626Z,17.50
2017-07-24T19:34:54.961Z,17.50
2017-07-24T19:37:59.004Z,17.40
2017-07-24T19:41:02.310Z,17.40
2017-07-24T19:44:05.591Z,17.50
2017-07-24T19:47:08.920Z,17.50
2017-07-24T19:50:12.226Z,17.40
2017-07-24T19:53:15.546Z,17.40
2017-07-24T19:56:19.738Z,17.40
2017-07-24T19:59:23.043Z,17.40
2017-07-24T20:02:26.366Z,17.40
2017-07-24T20:05:29.663Z,17.40
2017-07-24T20:08:33.740Z,17.40
2017-07-24T20:11:37.020Z,17.40
2017-07-24T20:14:40.352Z,17.40
2017-07-24T20:17:43.685Z,17.30
2017-07-24T20:20:47.019Z,17.30
2017-07-24T20:23:50.349Z,17.30
2017-07-24T20:26:54.526Z,17.30
2017-07-24T20:29:57.830Z,17.30
2017-07-24T20:33:01.129Z,17.20
2017-07-24T20:36:05.539Z,17.20
2017-07-24T20:39:09.613Z,17.20
2017-07-24T20:42:12.944Z,17.20
2017-07-24T20:45:16.251Z,17.30
2017-07-24T20:48:19.576Z,17.30
2017-07-24T20:51:22.922Z,17.30
2017-07-24T20:54:26.242Z,17.30
2017-07-24T20:57:29.576Z,17.20
2017-07-24T21:00:32.886Z,17.20
2017-07-24T21:03:36.216Z,17.20
2017-07-24T21:06:39.520Z,17.20
2017-07-24T21:09:42.829Z,17.20
2017-07-24T21:12:46.925Z,17.30
2017-07-24T21:15:50.221Z,17.20
2017-07-24T21:18:53.553Z,17.20
2017-07-24T21:21:56.848Z,17.10
2017-07-24T21:25:00.176Z,17.10
2017-07-24T21:28:03.595Z,17.10
2017-07-24T21:31:06.873Z,17.10
2017-07-24T21:34:10.178Z,17.20
2017-07-24T21:37:13.457Z,17.20
2017-07-24T21:40:16.792Z,17.20
2017-07-24T21:43:20.090Z,17.10
2017-07-24T21:46:23.428Z,17.10
2017-07-24T21:49:26.758Z,17.10
2017-07-24T21:52:30.108Z,17.20
2017-07-24T21:55:33.417Z,17.20
2017-07-24T21:58:36.694Z,17.20
2017-07-24T22:01:40.291Z,17.20
2017-07-24T22:04:43.855Z,17.20
2017-07-24T22:07:47.222Z,17.20
2017-07-24T22:10:50.566Z,17.20
2017-07-24T22:13:54.136Z,17.20
2017-07-24T22:16:57.588Z,17.20
2017-07-24T22:20:01.138Z,17.20
2017-07-24T22:23:04.504Z,17.20
2017-07-24T22:26:07.788Z,17.20
2017-07-24T22:29:11.242Z,17.20
2017-07-24T22:32:14.569Z,17.20
2017-07-24T22:35:17.891Z,17.20
2017-07-24T22:38:21.197Z,17.30
2017-07-24T22:41:24.538Z,17.30
2017-07-24T22:44:27.880Z,17.20
2017-07-24T22:47:31.225Z,17.20
2017-07-24T22:50:34.528Z,17.20
2017-07-24T22:53:37.852Z,17.20
2017-07-24T22:56:41.297Z,17.10
2017-07-24T22:59:45.369Z,17.10
2017-07-24T23:02:48.708Z,17.10
2017-07-24T23:05:52.757Z,17.20
2017-07-24T23:08:56.092Z,17.20
2017-07-24T23:11:59.513Z,17.20
2017-07-24T23:15:03.596Z,17.20
2017-07-24T23:18:06.936Z,17.10
2017-07-24T23:21:11.005Z,17.10
2017-07-24T23:24:14.362Z,17.10
2017-07-24T23:27:17.650Z,17.10
2017-07-24T23:30:20.961Z,17.10
2017-07-24T23:33:24.265Z,17.10
2017-07-24T23:36:27.582Z,17.10
2017-07-24T23:39:30.899Z,17.10
2017-07-24T23:42:34.185Z,17.10
2017-07-24T23:45:37.525Z,17.10
2017-07-24T23:48:41.600Z,17.10
2017-07-24T23:51:44.941Z,17.10
2017-07-24T23:54:48.249Z,17.10
2017-07-24T23:57:51.584Z,17.10
